Outwell, United Kingdom
Current Conditions -  °F | °C
As of 7:50 AM on Saturday 29 Nov 2014 (Local Time) from EGYM Reporting Station
Haze Haze  
Wind Chill: 44°   Ceiling: 13000
Heat Index: 48°   Visibility: 4mi
Dew Point: 46°   Wind: 9mph
Humidity: 93%   Direction: 120°ESE
Pressure: 29.85"   Gusts: NA
Location:  52.61°N, 0.23°E
Report Text: EGYM 290750Z AUTO 12008KT 7000 HZ SCT008/// BKN130/// 09/08 Q1011
Loading
Personal Weather Stations






























Interactive Weather Map New forecast layout! Learn more

10-Day Weather Forecast

Advertisements
Track Severe Weather on mobile